sensor_id;sensor_type;location;lat;lon;timestamp;temperature;humidity
75685;HTU21D;64298;46.050;38.164;2023-02-04T00:00:45;2.90;86.55
75685;HTU21D;64298;46.050;38.164;2023-02-04T00:03:14;2.94;86.54
75685;HTU21D;64298;46.050;38.164;2023-02-04T00:05:41;2.94;86.47
75685;HTU21D;64298;46.050;38.164;2023-02-04T00:08:26;2.96;86.46
75685;HTU21D;64298;46.050;38.164;2023-02-04T00:10:52;2.98;86.42
75685;HTU21D;64298;46.050;38.164;2023-02-04T00:13:17;2.99;86.45
75685;HTU21D;64298;46.050;38.164;2023-02-04T00:15:43;2.99;86.43
75685;HTU21D;64298;46.050;38.164;2023-02-04T00:18:09;2.98;86.47
75685;HTU21D;64298;46.050;38.164;2023-02-04T00:20:35;2.96;86.49
75685;HTU21D;64298;46.050;38.164;2023-02-04T00:23:01;2.97;86.48
75685;HTU21D;64298;46.050;38.164;2023-02-04T00:25:27;2.95;86.40
75685;HTU21D;64298;46.050;38.164;2023-02-04T00:27:54;2.95;86.48
75685;HTU21D;64298;46.050;38.164;2023-02-04T00:30:20;2.96;86.35
75685;HTU21D;64298;46.050;38.164;2023-02-04T00:32:46;2.95;86.22
75685;HTU21D;64298;46.050;38.164;2023-02-04T00:35:30;2.94;86.16
75685;HTU21D;64298;46.050;38.164;2023-02-04T00:37:56;2.94;86.20
75685;HTU21D;64298;46.050;38.164;2023-02-04T00:40:24;2.94;86.24
75685;HTU21D;64298;46.050;38.164;2023-02-04T00:42:50;2.94;86.23
75685;HTU21D;64298;46.050;38.164;2023-02-04T00:45:16;2.90;86.10
75685;HTU21D;64298;46.050;38.164;2023-02-04T00:47:43;2.90;86.04
75685;HTU21D;64298;46.050;38.164;2023-02-04T00:50:10;2.90;86.05
75685;HTU21D;64298;46.050;38.164;2023-02-04T00:52:36;2.88;85.97
75685;HTU21D;64298;46.050;38.164;2023-02-04T00:55:02;2.86;86.08
75685;HTU21D;64298;46.050;38.164;2023-02-04T00:57:28;2.87;86.16
75685;HTU21D;64298;46.050;38.164;2023-02-04T00:59:54;2.84;85.97
75685;HTU21D;64298;46.050;38.164;2023-02-04T01:02:20;2.84;85.85
75685;HTU21D;64298;46.050;38.164;2023-02-04T01:04:46;2.84;85.77
75685;HTU21D;64298;46.050;38.164;2023-02-04T01:07:12;2.83;85.76
75685;HTU21D;64298;46.050;38.164;2023-02-04T01:09:38;2.81;85.81
75685;HTU21D;64298;46.050;38.164;2023-02-04T01:12:04;2.80;85.84
75685;HTU21D;64298;46.050;38.164;2023-02-04T01:14:29;2.78;85.84
75685;HTU21D;64298;46.050;38.164;2023-02-04T01:16:56;2.72;85.79
75685;HTU21D;64298;46.050;38.164;2023-02-04T01:19:24;2.68;85.83
75685;HTU21D;64298;46.050;38.164;2023-02-04T01:21:51;2.68;85.84
75685;HTU21D;64298;46.050;38.164;2023-02-04T01:24:16;2.66;85.84
75685;HTU21D;64298;46.050;38.164;2023-02-04T01:27:01;2.66;85.84
75685;HTU21D;64298;46.050;38.164;2023-02-04T01:29:28;2.65;85.91
75685;HTU21D;64298;46.050;38.164;2023-02-04T01:31:53;2.66;86.03
75685;HTU21D;64298;46.050;38.164;2023-02-04T01:34:19;2.61;85.94
75685;HTU21D;64298;46.050;38.164;2023-02-04T01:36:45;2.57;85.88
75685;HTU21D;64298;46.050;38.164;2023-02-04T01:39:11;2.52;85.81
75685;HTU21D;64298;46.050;38.164;2023-02-04T01:41:38;2.50;85.77
75685;HTU21D;64298;46.050;38.164;2023-02-04T01:44:05;2.53;85.84
75685;HTU21D;64298;46.050;38.164;2023-02-04T01:46:31;2.54;85.86
75685;HTU21D;64298;46.050;38.164;2023-02-04T01:48:59;2.55;85.78
75685;HTU21D;64298;46.050;38.164;2023-02-04T01:51:27;2.55;85.72
75685;HTU21D;64298;46.050;38.164;2023-02-04T01:53:55;2.54;85.73
75685;HTU21D;64298;46.050;38.164;2023-02-04T01:56:25;2.52;85.73
75685;HTU21D;64298;46.050;38.164;2023-02-04T01:59:12;2.50;85.76
75685;HTU21D;64298;46.050;38.164;2023-02-04T02:04:13;2.50;85.60
75685;HTU21D;64298;46.050;38.164;2023-02-04T02:06:42;2.52;85.58
75685;HTU21D;64298;46.050;38.164;2023-02-04T02:09:09;2.53;85.55
75685;HTU21D;64298;46.050;38.164;2023-02-04T02:11:35;2.54;85.52
75685;HTU21D;64298;46.050;38.164;2023-02-04T02:14:02;2.54;85.49
75685;HTU21D;64298;46.050;38.164;2023-02-04T02:16:29;2.55;85.50
75685;HTU21D;64298;46.050;38.164;2023-02-04T02:18:55;2.59;85.51
75685;HTU21D;64298;46.050;38.164;2023-02-04T02:21:37;2.61;85.48
75685;HTU21D;64298;46.050;38.164;2023-02-04T02:24:28;2.64;85.45
75685;HTU21D;64298;46.050;38.164;2023-02-04T02:26:56;2.65;85.45
75685;HTU21D;64298;46.050;38.164;2023-02-04T02:29:24;2.65;85.45
75685;HTU21D;64298;46.050;38.164;2023-02-04T02:31:50;2.66;85.45
75685;HTU21D;64298;46.050;38.164;2023-02-04T02:34:17;2.69;85.42
75685;HTU21D;64298;46.050;38.164;2023-02-04T02:36:43;2.70;85.42
75685;HTU21D;64298;46.050;38.164;2023-02-04T02:39:10;2.72;85.40
75685;HTU21D;64298;46.050;38.164;2023-02-04T02:41:36;2.73;85.42
75685;HTU21D;64298;46.050;38.164;2023-02-04T02:44:02;2.73;85.37
75685;HTU21D;64298;46.050;38.164;2023-02-04T02:46:29;2.74;85.34
75685;HTU21D;64298;46.050;38.164;2023-02-04T02:48:56;2.74;85.31
75685;HTU21D;64298;46.050;38.164;2023-02-04T02:51:22;2.73;85.29
75685;HTU21D;64298;46.050;38.164;2023-02-04T02:53:48;2.74;85.30
75685;HTU21D;64298;46.050;38.164;2023-02-04T02:56:16;2.79;85.30
75685;HTU21D;64298;46.050;38.164;2023-02-04T02:58:43;2.79;85.24
75685;HTU21D;64298;46.050;38.164;2023-02-04T03:01:09;2.79;85.25
75685;HTU21D;64298;46.050;38.164;2023-02-04T03:03:44;2.76;85.16
75685;HTU21D;64298;46.050;38.164;2023-02-04T03:06:17;2.76;85.18
75685;HTU21D;64298;46.050;38.164;2023-02-04T03:08:47;2.75;85.16
75685;HTU21D;64298;46.050;38.164;2023-02-04T03:11:34;2.76;85.19
75685;HTU21D;64298;46.050;38.164;2023-02-04T03:14:01;2.75;85.22
75685;HTU21D;64298;46.050;38.164;2023-02-04T03:16:29;2.76;85.24
75685;HTU21D;64298;46.050;38.164;2023-02-04T03:19:16;2.76;85.24
75685;HTU21D;64298;46.050;38.164;2023-02-04T03:21:43;2.75;85.24
75685;HTU21D;64298;46.050;38.164;2023-02-04T03:24:10;2.73;85.32
75685;HTU21D;64298;46.050;38.164;2023-02-04T03:26:36;2.71;85.35
75685;HTU21D;64298;46.050;38.164;2023-02-04T03:29:06;2.71;85.42
75685;HTU21D;64298;46.050;38.164;2023-02-04T03:31:36;2.69;85.48
75685;HTU21D;64298;46.050;38.164;2023-02-04T03:34:03;2.67;85.58
75685;HTU21D;64298;46.050;38.164;2023-02-04T03:36:29;2.64;85.73
75685;HTU21D;64298;46.050;38.164;2023-02-04T03:38:55;2.62;85.83
75685;HTU21D;64298;46.050;38.164;2023-02-04T03:41:21;2.64;85.88
75685;HTU21D;64298;46.050;38.164;2023-02-04T03:43:47;2.64;85.87
75685;HTU21D;64298;46.050;38.164;2023-02-04T03:46:13;2.64;85.84
75685;HTU21D;64298;46.050;38.164;2023-02-04T03:48:39;2.64;85.86
75685;HTU21D;64298;46.050;38.164;2023-02-04T03:51:05;2.64;85.82
75685;HTU21D;64298;46.050;38.164;2023-02-04T03:53:31;2.64;85.68
75685;HTU21D;64298;46.050;38.164;2023-02-04T03:55:57;2.64;85.58
75685;HTU21D;64298;46.050;38.164;2023-02-04T03:58:23;2.61;85.54
75685;HTU21D;64298;46.050;38.164;2023-02-04T04:00:49;2.57;85.62
75685;HTU21D;64298;46.050;38.164;2023-02-04T04:03:15;2.54;85.77
75685;HTU21D;64298;46.050;38.164;2023-02-04T04:05:41;2.51;85.90
75685;HTU21D;64298;46.050;38.164;2023-02-04T04:08:07;2.50;85.96
75685;HTU21D;64298;46.050;38.164;2023-02-04T04:10:33;2.47;86.02
75685;HTU21D;64298;46.050;38.164;2023-02-04T04:12:59;2.42;86.13
75685;HTU21D;64298;46.050;38.164;2023-02-04T04:15:25;2.41;86.16
75685;HTU21D;64298;46.050;38.164;2023-02-04T04:17:51;2.37;86.20
75685;HTU21D;64298;46.050;38.164;2023-02-04T04:20:17;2.36;86.23
75685;HTU21D;64298;46.050;38.164;2023-02-04T04:22:43;2.35;86.29
75685;HTU21D;64298;46.050;38.164;2023-02-04T04:25:10;2.32;86.29
75685;HTU21D;64298;46.050;38.164;2023-02-04T04:27:36;2.34;86.23
75685;HTU21D;64298;46.050;38.164;2023-02-04T04:30:02;2.32;86.25
75685;HTU21D;64298;46.050;38.164;2023-02-04T04:32:29;2.35;86.19
75685;HTU21D;64298;46.050;38.164;2023-02-04T04:34:55;2.34;86.12
75685;HTU21D;64298;46.050;38.164;2023-02-04T04:37:21;2.32;86.05
75685;HTU21D;64298;46.050;38.164;2023-02-04T04:39:46;2.32;86.06
75685;HTU21D;64298;46.050;38.164;2023-02-04T04:42:12;2.34;86.07
75685;HTU21D;64298;46.050;38.164;2023-02-04T04:44:38;2.34;86.02
75685;HTU21D;64298;46.050;38.164;2023-02-04T04:47:04;2.35;86.02
75685;HTU21D;64298;46.050;38.164;2023-02-04T04:49:30;2.38;86.00
75685;HTU21D;64298;46.050;38.164;2023-02-04T04:51:56;2.42;85.96
75685;HTU21D;64298;46.050;38.164;2023-02-04T04:54:22;2.44;85.87
75685;HTU21D;64298;46.050;38.164;2023-02-04T04:56:48;2.47;85.85
75685;HTU21D;64298;46.050;38.164;2023-02-04T04:59:14;2.51;85.84
75685;HTU21D;64298;46.050;38.164;2023-02-04T05:01:40;2.53;85.71
75685;HTU21D;64298;46.050;38.164;2023-02-04T05:04:06;2.56;85.67
75685;HTU21D;64298;46.050;38.164;2023-02-04T05:06:32;2.60;85.65
75685;HTU21D;64298;46.050;38.164;2023-02-04T05:08:58;2.61;85.46
75685;HTU21D;64298;46.050;38.164;2023-02-04T05:11:24;2.60;85.45
75685;HTU21D;64298;46.050;38.164;2023-02-04T05:13:50;2.59;85.47
75685;HTU21D;64298;46.050;38.164;2023-02-04T05:16:16;2.61;85.39
75685;HTU21D;64298;46.050;38.164;2023-02-04T05:18:43;2.62;85.34
75685;HTU21D;64298;46.050;38.164;2023-02-04T05:21:09;2.65;85.32
75685;HTU21D;64298;46.050;38.164;2023-02-04T05:23:35;2.68;85.26
75685;HTU21D;64298;46.050;38.164;2023-02-04T05:26:01;2.69;85.26
75685;HTU21D;64298;46.050;38.164;2023-02-04T05:28:27;2.70;85.13
75685;HTU21D;64298;46.050;38.164;2023-02-04T05:30:53;2.70;85.02
75685;HTU21D;64298;46.050;38.164;2023-02-04T05:33:19;2.70;85.02
75685;HTU21D;64298;46.050;38.164;2023-02-04T05:35:44;2.72;85.03
75685;HTU21D;64298;46.050;38.164;2023-02-04T05:38:10;2.76;84.97
75685;HTU21D;64298;46.050;38.164;2023-02-04T05:40:36;2.75;84.90
75685;HTU21D;64298;46.050;38.164;2023-02-04T05:43:20;2.75;84.81
75685;HTU21D;64298;46.050;38.164;2023-02-04T05:45:46;2.75;84.80
75685;HTU21D;64298;46.050;38.164;2023-02-04T05:48:12;2.76;84.78
75685;HTU21D;64298;46.050;38.164;2023-02-04T05:50:57;2.81;84.71
75685;HTU21D;64298;46.050;38.164;2023-02-04T05:53:23;2.80;84.67
75685;HTU21D;64298;46.050;38.164;2023-02-04T05:55:48;2.83;84.66
75685;HTU21D;64298;46.050;38.164;2023-02-04T05:58:14;2.84;84.60
75685;HTU21D;64298;46.050;38.164;2023-02-04T06:00:40;2.87;84.58
75685;HTU21D;64298;46.050;38.164;2023-02-04T06:03:06;2.87;84.48
75685;HTU21D;64298;46.050;38.164;2023-02-04T06:05:32;2.89;84.52
75685;HTU21D;64298;46.050;38.164;2023-02-04T06:07:58;2.95;84.51
75685;HTU21D;64298;46.050;38.164;2023-02-04T06:10:24;2.99;84.41
75685;HTU21D;64298;46.050;38.164;2023-02-04T06:12:50;3.03;84.07
75685;HTU21D;64298;46.050;38.164;2023-02-04T06:15:16;3.04;83.57
75685;HTU21D;64298;46.050;38.164;2023-02-04T06:17:42;3.06;83.57
75685;HTU21D;64298;46.050;38.164;2023-02-04T06:20:09;3.14;83.64
75685;HTU21D;64298;46.050;38.164;2023-02-04T06:22:35;3.23;83.60
75685;HTU21D;64298;46.050;38.164;2023-02-04T06:25:01;3.30;83.52
75685;HTU21D;64298;46.050;38.164;2023-02-04T06:27:27;3.35;83.48
75685;HTU21D;64298;46.050;38.164;2023-02-04T06:29:53;3.39;83.43
75685;HTU21D;64298;46.050;38.164;2023-02-04T06:32:19;3.41;83.37
75685;HTU21D;64298;46.050;38.164;2023-02-04T06:34:46;3.41;83.39
75685;HTU21D;64298;46.050;38.164;2023-02-04T06:37:12;3.42;83.44
75685;HTU21D;64298;46.050;38.164;2023-02-04T06:39:38;3.44;83.48
75685;HTU21D;64298;46.050;38.164;2023-02-04T06:42:04;3.46;83.50
75685;HTU21D;64298;46.050;38.164;2023-02-04T06:44:30;3.48;83.49
75685;HTU21D;64298;46.050;38.164;2023-02-04T06:47:15;3.53;83.46
75685;HTU21D;64298;46.050;38.164;2023-02-04T06:49:41;3.56;83.45
75685;HTU21D;64298;46.050;38.164;2023-02-04T06:52:08;3.56;83.42
75685;HTU21D;64298;46.050;38.164;2023-02-04T06:54:34;3.59;83.40
75685;HTU21D;64298;46.050;38.164;2023-02-04T06:57:00;3.63;83.42
75685;HTU21D;64298;46.050;38.164;2023-02-04T06:59:35;3.67;83.39
75685;HTU21D;64298;46.050;38.164;2023-02-04T07:02:02;3.67;83.37
75685;HTU21D;64298;46.050;38.164;2023-02-04T07:04:29;3.65;83.33
75685;HTU21D;64298;46.050;38.164;2023-02-04T07:06:55;3.65;83.43
75685;HTU21D;64298;46.050;38.164;2023-02-04T07:09:21;3.65;83.49
75685;HTU21D;64298;46.050;38.164;2023-02-04T07:11:47;3.67;83.52
75685;HTU21D;64298;46.050;38.164;2023-02-04T07:14:31;3.68;83.54
75685;HTU21D;64298;46.050;38.164;2023-02-04T07:16:57;3.65;83.53
75685;HTU21D;64298;46.050;38.164;2023-02-04T07:19:23;3.67;83.62
75685;HTU21D;64298;46.050;38.164;2023-02-04T07:21:50;3.70;83.65
75685;HTU21D;64298;46.050;38.164;2023-02-04T07:24:19;3.73;83.64
75685;HTU21D;64298;46.050;38.164;2023-02-04T07:26:45;3.74;83.60
75685;HTU21D;64298;46.050;38.164;2023-02-04T07:29:11;3.79;83.65
75685;HTU21D;64298;46.050;38.164;2023-02-04T07:31:37;3.85;83.62
75685;HTU21D;64298;46.050;38.164;2023-02-04T07:34:03;3.89;83.56
75685;HTU21D;64298;46.050;38.164;2023-02-04T07:36:29;3.90;83.42
75685;HTU21D;64298;46.050;38.164;2023-02-04T07:38:54;3.91;83.46
75685;HTU21D;64298;46.050;38.164;2023-02-04T07:41:21;3.89;83.42
75685;HTU21D;64298;46.050;38.164;2023-02-04T07:43:46;3.88;83.47
75685;HTU21D;64298;46.050;38.164;2023-02-04T07:46:12;3.89;83.50
75685;HTU21D;64298;46.050;38.164;2023-02-04T07:48:38;3.90;83.47
75685;HTU21D;64298;46.050;38.164;2023-02-04T07:51:23;3.92;83.44
75685;HTU21D;64298;46.050;38.164;2023-02-04T07:53:49;3.93;83.43
75685;HTU21D;64298;46.050;38.164;2023-02-04T07:56:15;4.07;83.53
75685;HTU21D;64298;46.050;38.164;2023-02-04T07:58:41;4.30;83.10
75685;HTU21D;64298;46.050;38.164;2023-02-04T08:01:07;4.45;82.65
75685;HTU21D;64298;46.050;38.164;2023-02-04T08:03:33;4.45;82.04
75685;HTU21D;64298;46.050;38.164;2023-02-04T08:05:59;4.37;81.59
75685;HTU21D;64298;46.050;38.164;2023-02-04T08:08:25;4.31;81.30
75685;HTU21D;64298;46.050;38.164;2023-02-04T08:10:50;4.23;80.93
75685;HTU21D;64298;46.050;38.164;2023-02-04T08:13:16;4.20;80.75
75685;HTU21D;64298;46.050;38.164;2023-02-04T08:15:42;4.14;80.40
75685;HTU21D;64298;46.050;38.164;2023-02-04T08:18:08;4.15;80.46
75685;HTU21D;64298;46.050;38.164;2023-02-04T08:20:34;4.23;79.76
75685;HTU21D;64298;46.050;38.164;2023-02-04T08:23:00;4.34;78.90
75685;HTU21D;64298;46.050;38.164;2023-02-04T08:25:26;4.43;78.98
75685;HTU21D;64298;46.050;38.164;2023-02-04T08:28:11;4.62;79.01
75685;HTU21D;64298;46.050;38.164;2023-02-04T08:30:37;4.73;78.27
75685;HTU21D;64298;46.050;38.164;2023-02-04T08:33:03;4.75;77.46
75685;HTU21D;64298;46.050;38.164;2023-02-04T08:35:29;4.81;77.29
75685;HTU21D;64298;46.050;38.164;2023-02-04T08:37:55;4.89;76.88
75685;HTU21D;64298;46.050;38.164;2023-02-04T08:40:21;4.86;76.44
75685;HTU21D;64298;46.050;38.164;2023-02-04T08:42:47;4.89;76.76
75685;HTU21D;64298;46.050;38.164;2023-02-04T08:45:13;5.05;76.73
75685;HTU21D;64298;46.050;38.164;2023-02-04T08:47:38;5.18;76.78
75685;HTU21D;64298;46.050;38.164;2023-02-04T08:50:05;5.37;76.28
75685;HTU21D;64298;46.050;38.164;2023-02-04T08:52:31;5.55;75.44
75685;HTU21D;64298;46.050;38.164;2023-02-04T08:54:57;5.59;74.57
75685;HTU21D;64298;46.050;38.164;2023-02-04T08:57:22;5.56;75.29
75685;HTU21D;64298;46.050;38.164;2023-02-04T08:59:48;5.69;74.87
75685;HTU21D;64298;46.050;38.164;2023-02-04T09:02:14;5.93;74.70
75685;HTU21D;64298;46.050;38.164;2023-02-04T09:04:40;6.15;74.00
75685;HTU21D;64298;46.050;38.164;2023-02-04T09:07:06;6.27;72.39
75685;HTU21D;64298;46.050;38.164;2023-02-04T09:09:32;6.27;72.34
75685;HTU21D;64298;46.050;38.164;2023-02-04T09:11:58;6.33;71.78
75685;HTU21D;64298;46.050;38.164;2023-02-04T09:14:24;6.33;71.88
75685;HTU21D;64298;46.050;38.164;2023-02-04T09:16:50;6.37;72.35
75685;HTU21D;64298;46.050;38.164;2023-02-04T09:19:16;6.44;72.40
75685;HTU21D;64298;46.050;38.164;2023-02-04T09:21:43;6.58;72.20
75685;HTU21D;64298;46.050;38.164;2023-02-04T09:24:28;6.82;70.96
75685;HTU21D;64298;46.050;38.164;2023-02-04T09:26:54;6.87;70.10
75685;HTU21D;64298;46.050;38.164;2023-02-04T09:29:19;6.97;70.79
75685;HTU21D;64298;46.050;38.164;2023-02-04T09:31:45;7.19;69.71
75685;HTU21D;64298;46.050;38.164;2023-02-04T09:34:11;7.18;70.14
75685;HTU21D;64298;46.050;38.164;2023-02-04T09:36:37;7.27;70.51
75685;HTU21D;64298;46.050;38.164;2023-02-04T09:39:04;7.27;69.45
75685;HTU21D;64298;46.050;38.164;2023-02-04T09:41:50;7.09;69.68
75685;HTU21D;64298;46.050;38.164;2023-02-04T09:44:20;6.91;70.29
75685;HTU21D;64298;46.050;38.164;2023-02-04T09:46:49;6.78;70.58
75685;HTU21D;64298;46.050;38.164;2023-02-04T09:49:15;6.61;70.69
75685;HTU21D;64298;46.050;38.164;2023-02-04T09:51:42;6.50;70.93
75685;HTU21D;64298;46.050;38.164;2023-02-04T09:54:20;6.38;71.11
75685;HTU21D;64298;46.050;38.164;2023-02-04T09:56:47;6.12;71.18
75685;HTU21D;64298;46.050;38.164;2023-02-04T09:59:15;5.92;71.67
75685;HTU21D;64298;46.050;38.164;2023-02-04T10:01:42;5.78;72.21
75685;HTU21D;64298;46.050;38.164;2023-02-04T10:04:13;5.70;72.60
75685;HTU21D;64298;46.050;38.164;2023-02-04T10:06:41;5.64;72.76
75685;HTU21D;64298;46.050;38.164;2023-02-04T10:09:11;5.55;72.99
75685;HTU21D;64298;46.050;38.164;2023-02-04T10:11:40;5.47;73.16
75685;HTU21D;64298;46.050;38.164;2023-02-04T10:14:12;5.41;73.28
75685;HTU21D;64298;46.050;38.164;2023-02-04T10:16:39;5.36;73.49
75685;HTU21D;64298;46.050;38.164;2023-02-04T10:19:13;5.31;73.61
75685;HTU21D;64298;46.050;38.164;2023-02-04T10:21:42;5.27;73.70
75685;HTU21D;64298;46.050;38.164;2023-02-04T10:24:15;5.26;73.83
75685;HTU21D;64298;46.050;38.164;2023-02-04T10:26:42;5.37;73.89
75685;HTU21D;64298;46.050;38.164;2023-02-04T10:29:16;5.43;73.67
75685;HTU21D;64298;46.050;38.164;2023-02-04T10:31:47;5.51;73.60
75685;HTU21D;64298;46.050;38.164;2023-02-04T10:34:31;5.51;73.31
75685;HTU21D;64298;46.050;38.164;2023-02-04T10:36:57;5.47;73.28
75685;HTU21D;64298;46.050;38.164;2023-02-04T10:39:24;5.61;73.42
75685;HTU21D;64298;46.050;38.164;2023-02-04T10:41:56;5.85;72.71
75685;HTU21D;64298;46.050;38.164;2023-02-04T10:44:33;6.07;72.04
75685;HTU21D;64298;46.050;38.164;2023-02-04T10:47:06;6.14;71.27
75685;HTU21D;64298;46.050;38.164;2023-02-04T10:49:39;6.17;71.38
75685;HTU21D;64298;46.050;38.164;2023-02-04T10:52:17;6.21;71.22
75685;HTU21D;64298;46.050;38.164;2023-02-04T10:54:44;6.28;71.06
75685;HTU21D;64298;46.050;38.164;2023-02-04T10:57:28;6.28;70.71
75685;HTU21D;64298;46.050;38.164;2023-02-04T10:59:59;6.33;70.64
75685;HTU21D;64298;46.050;38.164;2023-02-04T11:03:08;6.42;70.74
75685;HTU21D;64298;46.050;38.164;2023-02-04T11:05:35;6.52;70.26
75685;HTU21D;64298;46.050;38.164;2023-02-04T11:08:03;6.55;70.03
75685;HTU21D;64298;46.050;38.164;2023-02-04T11:10:44;6.58;69.99
75685;HTU21D;64298;46.050;38.164;2023-02-04T11:13:24;6.53;69.84
75685;HTU21D;64298;46.050;38.164;2023-02-04T11:16:10;6.43;69.94
75685;HTU21D;64298;46.050;38.164;2023-02-04T11:21:44;6.45;69.91
75685;HTU21D;64298;46.050;38.164;2023-02-04T11:26:47;6.24;69.89
75685;HTU21D;64298;46.050;38.164;2023-02-04T11:29:26;6.00;70.05
75685;HTU21D;64298;46.050;38.164;2023-02-04T11:31:55;5.90;70.57
75685;HTU21D;64298;46.050;38.164;2023-02-04T11:37:18;5.66;71.00
75685;HTU21D;64298;46.050;38.164;2023-02-04T11:39:52;5.59;71.12
75685;HTU21D;64298;46.050;38.164;2023-02-04T11:42:31;5.68;71.64
75685;HTU21D;64298;46.050;38.164;2023-02-04T11:45:10;5.89;71.47
75685;HTU21D;64298;46.050;38.164;2023-02-04T11:47:37;6.08;70.90
75685;HTU21D;64298;46.050;38.164;2023-02-04T11:50:12;6.10;70.35
75685;HTU21D;64298;46.050;38.164;2023-02-04T11:53:00;6.14;70.39
75685;HTU21D;64298;46.050;38.164;2023-02-04T11:55:28;6.12;70.22
75685;HTU21D;64298;46.050;38.164;2023-02-04T11:57:55;5.95;70.05
75685;HTU21D;64298;46.050;38.164;2023-02-04T12:00:24;5.86;70.40
75685;HTU21D;64298;46.050;38.164;2023-02-04T12:03:00;5.85;70.58
75685;HTU21D;64298;46.050;38.164;2023-02-04T12:05:45;5.90;70.62
75685;HTU21D;64298;46.050;38.164;2023-02-04T12:11:08;5.79;70.24
75685;HTU21D;64298;46.050;38.164;2023-02-04T12:13:49;5.72;70.56
75685;HTU21D;64298;46.050;38.164;2023-02-04T12:16:16;5.62;70.40
75685;HTU21D;64298;46.050;38.164;2023-02-04T12:18:43;5.48;70.45
75685;HTU21D;64298;46.050;38.164;2023-02-04T12:21:09;5.31;70.52
75685;HTU21D;64298;46.050;38.164;2023-02-04T12:23:34;5.18;70.56
75685;HTU21D;64298;46.050;38.164;2023-02-04T12:26:19;5.06;70.81
75685;HTU21D;64298;46.050;38.164;2023-02-04T12:28:45;4.93;70.91
75685;HTU21D;64298;46.050;38.164;2023-02-04T12:31:11;4.83;71.24
75685;HTU21D;64298;46.050;38.164;2023-02-04T12:33:37;4.74;71.51
75685;HTU21D;64298;46.050;38.164;2023-02-04T12:36:03;4.69;71.77
75685;HTU21D;64298;46.050;38.164;2023-02-04T12:38:29;4.61;71.86
75685;HTU21D;64298;46.050;38.164;2023-02-04T12:40:55;4.60;72.15
75685;HTU21D;64298;46.050;38.164;2023-02-04T12:43:21;4.60;72.27
75685;HTU21D;64298;46.050;38.164;2023-02-04T12:45:47;4.61;72.45
75685;HTU21D;64298;46.050;38.164;2023-02-04T12:48:14;4.62;72.49
75685;HTU21D;64298;46.050;38.164;2023-02-04T12:50:40;4.62;72.63
75685;HTU21D;64298;46.050;38.164;2023-02-04T12:53:06;4.61;72.72
75685;HTU21D;64298;46.050;38.164;2023-02-04T12:55:32;4.60;72.74
75685;HTU21D;64298;46.050;38.164;2023-02-04T12:57:58;4.56;72.62
75685;HTU21D;64298;46.050;38.164;2023-02-04T13:00:24;4.53;72.87
75685;HTU21D;64298;46.050;38.164;2023-02-04T13:02:52;4.54;72.85
75685;HTU21D;64298;46.050;38.164;2023-02-04T13:05:19;4.49;72.87
75685;HTU21D;64298;46.050;38.164;2023-02-04T13:07:45;4.45;72.94
75685;HTU21D;64298;46.050;38.164;2023-02-04T13:10:12;4.44;73.09
75685;HTU21D;64298;46.050;38.164;2023-02-04T13:12:56;4.44;73.06
75685;HTU21D;64298;46.050;38.164;2023-02-04T13:15:22;4.43;72.99
75685;HTU21D;64298;46.050;38.164;2023-02-04T13:17:48;4.39;72.97
75685;HTU21D;64298;46.050;38.164;2023-02-04T13:20:15;4.36;72.99
75685;HTU21D;64298;46.050;38.164;2023-02-04T13:22:41;4.33;72.93
75685;HTU21D;64298;46.050;38.164;2023-02-04T13:25:07;4.29;72.87
75685;HTU21D;64298;46.050;38.164;2023-02-04T13:27:39;4.24;72.97
75685;HTU21D;64298;46.050;38.164;2023-02-04T13:30:07;4.18;73.01
75685;HTU21D;64298;46.050;38.164;2023-02-04T13:32:33;4.20;73.22
75685;HTU21D;64298;46.050;38.164;2023-02-04T13:34:59;4.17;73.39
75685;HTU21D;64298;46.050;38.164;2023-02-04T13:37:25;4.14;73.46
75685;HTU21D;64298;46.050;38.164;2023-02-04T13:39:51;4.13;73.51
75685;HTU21D;64298;46.050;38.164;2023-02-04T13:42:17;4.16;73.56
75685;HTU21D;64298;46.050;38.164;2023-02-04T13:44:43;4.21;73.48
75685;HTU21D;64298;46.050;38.164;2023-02-04T13:47:08;4.28;73.38
75685;HTU21D;64298;46.050;38.164;2023-02-04T13:49:34;4.31;73.15
75685;HTU21D;64298;46.050;38.164;2023-02-04T13:52:00;4.37;73.15
75685;HTU21D;64298;46.050;38.164;2023-02-04T13:54:26;4.42;73.13
75685;HTU21D;64298;46.050;38.164;2023-02-04T13:56:52;4.47;73.22
75685;HTU21D;64298;46.050;38.164;2023-02-04T13:59:18;4.51;73.22
75685;HTU21D;64298;46.050;38.164;2023-02-04T14:01:44;4.54;73.09
75685;HTU21D;64298;46.050;38.164;2023-02-04T14:04:10;4.54;72.94
75685;HTU21D;64298;46.050;38.164;2023-02-04T14:06:36;4.47;72.58
75685;HTU21D;64298;46.050;38.164;2023-02-04T14:09:09;4.39;72.77
75685;HTU21D;64298;46.050;38.164;2023-02-04T14:11:36;4.32;72.96
75685;HTU21D;64298;46.050;38.164;2023-02-04T14:14:03;4.27;73.16
75685;HTU21D;64298;46.050;38.164;2023-02-04T14:16:28;4.23;73.36
75685;HTU21D;64298;46.050;38.164;2023-02-04T14:18:55;4.20;73.44
75685;HTU21D;64298;46.050;38.164;2023-02-04T14:21:20;4.17;73.48
75685;HTU21D;64298;46.050;38.164;2023-02-04T14:23:47;4.14;73.52
75685;HTU21D;64298;46.050;38.164;2023-02-04T14:26:13;4.09;73.66
75685;HTU21D;64298;46.050;38.164;2023-02-04T14:28:39;4.04;73.74
75685;HTU21D;64298;46.050;38.164;2023-02-04T14:31:05;4.00;73.83
75685;HTU21D;64298;46.050;38.164;2023-02-04T14:33:31;3.95;73.93
75685;HTU21D;64298;46.050;38.164;2023-02-04T14:35:57;3.91;73.99
75685;HTU21D;64298;46.050;38.164;2023-02-04T14:38:23;3.85;74.15
75685;HTU21D;64298;46.050;38.164;2023-02-04T14:40:56;3.78;74.28
75685;HTU21D;64298;46.050;38.164;2023-02-04T14:43:23;3.77;74.44
75685;HTU21D;64298;46.050;38.164;2023-02-04T14:45:49;3.74;74.48
75685;HTU21D;64298;46.050;38.164;2023-02-04T14:48:15;3.72;74.56
75685;HTU21D;64298;46.050;38.164;2023-02-04T14:50:41;3.69;74.65
75685;HTU21D;64298;46.050;38.164;2023-02-04T14:53:06;3.67;74.70
75685;HTU21D;64298;46.050;38.164;2023-02-04T14:55:33;3.65;74.77
75685;HTU21D;64298;46.050;38.164;2023-02-04T14:57:58;3.62;74.76
75685;HTU21D;64298;46.050;38.164;2023-02-04T15:00:25;3.58;74.86
75685;HTU21D;64298;46.050;38.164;2023-02-04T15:02:51;3.52;74.96
75685;HTU21D;64298;46.050;38.164;2023-02-04T15:05:17;3.47;75.09
75685;HTU21D;64298;46.050;38.164;2023-02-04T15:07:43;3.44;75.22
75685;HTU21D;64298;46.050;38.164;2023-02-04T15:10:10;3.42;75.31
75685;HTU21D;64298;46.050;38.164;2023-02-04T15:12:37;3.40;75.39
75685;HTU21D;64298;46.050;38.164;2023-02-04T15:15:04;3.39;75.47
75685;HTU21D;64298;46.050;38.164;2023-02-04T15:17:30;3.36;75.54
75685;HTU21D;64298;46.050;38.164;2023-02-04T15:19:56;3.31;75.68
75685;HTU21D;64298;46.050;38.164;2023-02-04T15:22:22;3.30;75.76
75685;HTU21D;64298;46.050;38.164;2023-02-04T15:24:48;3.28;75.86
75685;HTU21D;64298;46.050;38.164;2023-02-04T15:27:14;3.25;75.98
75685;HTU21D;64298;46.050;38.164;2023-02-04T15:29:40;3.23;76.05
75685;HTU21D;64298;46.050;38.164;2023-02-04T15:32:06;3.24;76.12
75685;HTU21D;64298;46.050;38.164;2023-02-04T15:34:32;3.29;76.11